sim
Sign-in with your pilot id or email,
or register
Callsign
Passwort

Schedule Details

Flight Number: RYR169 (1)
Departure: Trieste Friuli Venezia Giulia Airport (LIPQ) at 16:00
Arrival: London Stansted Airport (EGSS) at 18:20
Route: Ryanair Passenger Schedule. Enter filed route here before submitting Pirep.

Weather Information
Getting current METAR information for LIPQ 241550Z AUTO 35001KT 9999 OVC130/// 06/06 Q0997
Getting current METAR information for EGSS 241550Z AUTO 09008KT 1400 R04/1300 -SN BKN003 BKN008 OVC029 00/00 Q0994

Schedule Frequency

Route Map